EGPN

Dundee Airport

Dundee, United Kingdom
METAR EGPN 151850Z VRB02KT 9999 FEW024 01/M01 Q1009
Observed Flight Rules
Dec-15 @ 18:50 UTC (47 minutes ago) Visual Flight Rules
Wind Visibility Clouds
Variable at 2 knots 10,000+ meters
  • Few at 2,400' AGL
Temperatures Readings
Current 1°C / 34°F
Dewpoint -1°C / 30°F
Humidity 87%
Altimeter 29.79" Hg
Pressure 1009 hPa
Elevation 4
METAR EGPN 151850Z VRB02KT 9999 FEW024 01/M01 Q1009
Observed Flight Rules
Dec-15 @ 18:50 UTC
(47 minutes ago)
VFR
Wind Visibility
Variable at 2 knots 10,000+ meters
Clouds
  • Few at 2,400' AGL
Temperature Dewpoint
1°C / 34°F -1°C / 30°F
Humidity Altimeter Pressure
87% 29.79" Hg 1009 hPa